sensor_id;sensor_type;location;lat;lon;timestamp;temperature;humidity
11142;DHT22;5625;50.122;19.864;2022-12-07T00:01:27;3.00;99.90
11142;DHT22;5625;50.122;19.864;2022-12-07T00:03:58;3.00;99.90
11142;DHT22;5625;50.122;19.864;2022-12-07T00:06:31;3.00;99.90
11142;DHT22;5625;50.122;19.864;2022-12-07T00:09:00;3.00;99.90
11142;DHT22;5625;50.122;19.864;2022-12-07T00:11:29;3.00;99.90
11142;DHT22;5625;50.122;19.864;2022-12-07T00:13:59;3.00;99.90
11142;DHT22;5625;50.122;19.864;2022-12-07T00:16:31;3.00;99.90
11142;DHT22;5625;50.122;19.864;2022-12-07T00:19:00;3.00;99.90
11142;DHT22;5625;50.122;19.864;2022-12-07T00:21:30;3.00;99.90
11142;DHT22;5625;50.122;19.864;2022-12-07T00:23:58;3.00;99.90
11142;DHT22;5625;50.122;19.864;2022-12-07T00:26:29;3.00;99.90
11142;DHT22;5625;50.122;19.864;2022-12-07T00:28:59;3.00;99.90
11142;DHT22;5625;50.122;19.864;2022-12-07T00:31:29;3.00;99.90
11142;DHT22;5625;50.122;19.864;2022-12-07T00:33:59;3.00;99.90
11142;DHT22;5625;50.122;19.864;2022-12-07T00:36:27;3.00;99.90
11142;DHT22;5625;50.122;19.864;2022-12-07T00:38:57;3.00;99.90
11142;DHT22;5625;50.122;19.864;2022-12-07T00:41:28;3.00;99.90
11142;DHT22;5625;50.122;19.864;2022-12-07T00:43:57;3.00;99.90
11142;DHT22;5625;50.122;19.864;2022-12-07T00:46:25;3.00;99.90
11142;DHT22;5625;50.122;19.864;2022-12-07T00:48:54;3.00;99.90
11142;DHT22;5625;50.122;19.864;2022-12-07T00:51:24;3.00;99.90
11142;DHT22;5625;50.122;19.864;2022-12-07T00:53:52;3.00;99.90
11142;DHT22;5625;50.122;19.864;2022-12-07T00:56:22;3.00;99.90
11142;DHT22;5625;50.122;19.864;2022-12-07T00:58:53;3.00;99.90
11142;DHT22;5625;50.122;19.864;2022-12-07T01:01:22;3.00;99.90
11142;DHT22;5625;50.122;19.864;2022-12-07T01:03:51;3.00;99.90
11142;DHT22;5625;50.122;19.864;2022-12-07T01:06:20;3.00;99.90
11142;DHT22;5625;50.122;19.864;2022-12-07T01:08:49;3.00;99.90
11142;DHT22;5625;50.122;19.864;2022-12-07T01:11:19;3.00;99.90
11142;DHT22;5625;50.122;19.864;2022-12-07T01:13:49;3.00;99.90
11142;DHT22;5625;50.122;19.864;2022-12-07T01:16:19;3.00;99.90
11142;DHT22;5625;50.122;19.864;2022-12-07T01:18:49;3.00;99.90
11142;DHT22;5625;50.122;19.864;2022-12-07T01:21:19;3.00;99.90
11142;DHT22;5625;50.122;19.864;2022-12-07T01:23:48;3.00;99.90
11142;DHT22;5625;50.122;19.864;2022-12-07T01:26:18;3.00;99.90
11142;DHT22;5625;50.122;19.864;2022-12-07T01:28:47;3.00;99.90
11142;DHT22;5625;50.122;19.864;2022-12-07T01:31:17;3.00;99.90
11142;DHT22;5625;50.122;19.864;2022-12-07T01:33:50;3.00;99.90
11142;DHT22;5625;50.122;19.864;2022-12-07T01:36:20;3.00;99.90
11142;DHT22;5625;50.122;19.864;2022-12-07T01:38:51;3.00;99.90
11142;DHT22;5625;50.122;19.864;2022-12-07T01:41:20;3.00;99.90
11142;DHT22;5625;50.122;19.864;2022-12-07T01:44:13;3.00;99.90
11142;DHT22;5625;50.122;19.864;2022-12-07T01:46:43;3.00;99.90
11142;DHT22;5625;50.122;19.864;2022-12-07T01:49:17;3.00;99.90
11142;DHT22;5625;50.122;19.864;2022-12-07T01:51:49;3.00;99.90
11142;DHT22;5625;50.122;19.864;2022-12-07T01:54:20;2.90;99.90
11142;DHT22;5625;50.122;19.864;2022-12-07T01:56:52;3.00;99.90
11142;DHT22;5625;50.122;19.864;2022-12-07T01:59:23;2.90;99.90
11142;DHT22;5625;50.122;19.864;2022-12-07T02:01:53;2.90;99.90
11142;DHT22;5625;50.122;19.864;2022-12-07T02:04:24;2.90;99.90
11142;DHT22;5625;50.122;19.864;2022-12-07T02:06:54;2.90;99.90
11142;DHT22;5625;50.122;19.864;2022-12-07T02:09:22;2.80;99.90
11142;DHT22;5625;50.122;19.864;2022-12-07T02:11:51;2.80;99.90
11142;DHT22;5625;50.122;19.864;2022-12-07T02:14:19;2.80;99.90
11142;DHT22;5625;50.122;19.864;2022-12-07T02:16:58;2.80;99.90
11142;DHT22;5625;50.122;19.864;2022-12-07T02:22:54;2.70;99.90
11142;DHT22;5625;50.122;19.864;2022-12-07T02:25:39;2.70;99.90
11142;DHT22;5625;50.122;19.864;2022-12-07T02:28:20;2.70;99.90
11142;DHT22;5625;50.122;19.864;2022-12-07T02:30:55;2.70;99.90
11142;DHT22;5625;50.122;19.864;2022-12-07T02:33:27;2.70;99.90
11142;DHT22;5625;50.122;19.864;2022-12-07T02:36:00;2.70;99.90
11142;DHT22;5625;50.122;19.864;2022-12-07T02:38:35;2.70;99.90
11142;DHT22;5625;50.122;19.864;2022-12-07T02:41:07;2.70;99.90
11142;DHT22;5625;50.122;19.864;2022-12-07T02:43:40;2.70;99.90
11142;DHT22;5625;50.122;19.864;2022-12-07T02:46:18;2.70;99.90
11142;DHT22;5625;50.122;19.864;2022-12-07T02:48:49;2.70;99.90
11142;DHT22;5625;50.122;19.864;2022-12-07T02:51:19;2.60;99.90
11142;DHT22;5625;50.122;19.864;2022-12-07T02:53:47;2.60;99.90
11142;DHT22;5625;50.122;19.864;2022-12-07T02:56:24;2.60;99.90
11142;DHT22;5625;50.122;19.864;2022-12-07T02:59:04;2.60;99.90
11142;DHT22;5625;50.122;19.864;2022-12-07T03:01:41;2.70;99.90
11142;DHT22;5625;50.122;19.864;2022-12-07T03:04:23;2.60;99.90
11142;DHT22;5625;50.122;19.864;2022-12-07T03:07:00;2.60;99.90
11142;DHT22;5625;50.122;19.864;2022-12-07T03:09:33;2.60;99.90
11142;DHT22;5625;50.122;19.864;2022-12-07T03:12:08;2.60;99.90
11142;DHT22;5625;50.122;19.864;2022-12-07T03:14:40;2.60;99.90
11142;DHT22;5625;50.122;19.864;2022-12-07T03:17:12;2.60;99.90
11142;DHT22;5625;50.122;19.864;2022-12-07T03:19:43;2.60;99.90
11142;DHT22;5625;50.122;19.864;2022-12-07T03:22:13;2.60;99.90
11142;DHT22;5625;50.122;19.864;2022-12-07T03:24:44;2.60;99.90
11142;DHT22;5625;50.122;19.864;2022-12-07T03:27:18;2.60;99.90
11142;DHT22;5625;50.122;19.864;2022-12-07T03:29:51;2.60;99.90
11142;DHT22;5625;50.122;19.864;2022-12-07T03:32:25;2.60;99.90
11142;DHT22;5625;50.122;19.864;2022-12-07T03:35:00;2.60;99.90
11142;DHT22;5625;50.122;19.864;2022-12-07T03:37:33;2.60;99.90
11142;DHT22;5625;50.122;19.864;2022-12-07T03:40:08;2.60;99.90
11142;DHT22;5625;50.122;19.864;2022-12-07T03:42:39;2.60;99.90
11142;DHT22;5625;50.122;19.864;2022-12-07T03:45:09;2.60;99.90
11142;DHT22;5625;50.122;19.864;2022-12-07T03:47:45;2.60;99.90
11142;DHT22;5625;50.122;19.864;2022-12-07T03:50:21;2.60;99.90
11142;DHT22;5625;50.122;19.864;2022-12-07T03:52:55;2.60;99.90
11142;DHT22;5625;50.122;19.864;2022-12-07T03:55:26;2.60;99.90
11142;DHT22;5625;50.122;19.864;2022-12-07T03:57:58;2.60;99.90
11142;DHT22;5625;50.122;19.864;2022-12-07T04:00:27;2.60;99.90
11142;DHT22;5625;50.122;19.864;2022-12-07T04:02:57;2.60;99.90
11142;DHT22;5625;50.122;19.864;2022-12-07T04:05:26;2.60;99.90
11142;DHT22;5625;50.122;19.864;2022-12-07T04:07:54;2.60;99.90
11142;DHT22;5625;50.122;19.864;2022-12-07T04:10:22;2.60;99.90
11142;DHT22;5625;50.122;19.864;2022-12-07T04:12:50;2.60;99.90
11142;DHT22;5625;50.122;19.864;2022-12-07T04:15:18;2.60;99.90
11142;DHT22;5625;50.122;19.864;2022-12-07T04:17:46;2.50;99.90
11142;DHT22;5625;50.122;19.864;2022-12-07T04:20:16;2.50;99.90
11142;DHT22;5625;50.122;19.864;2022-12-07T04:22:44;2.50;99.90
11142;DHT22;5625;50.122;19.864;2022-12-07T04:25:12;2.50;99.90
11142;DHT22;5625;50.122;19.864;2022-12-07T04:27:40;2.50;99.90
11142;DHT22;5625;50.122;19.864;2022-12-07T04:30:09;2.50;99.90
11142;DHT22;5625;50.122;19.864;2022-12-07T04:32:37;2.50;99.90
11142;DHT22;5625;50.122;19.864;2022-12-07T04:35:06;2.50;99.90
11142;DHT22;5625;50.122;19.864;2022-12-07T04:37:35;2.50;99.90
11142;DHT22;5625;50.122;19.864;2022-12-07T04:40:07;2.50;99.90
11142;DHT22;5625;50.122;19.864;2022-12-07T04:42:37;2.50;99.90
11142;DHT22;5625;50.122;19.864;2022-12-07T04:45:07;2.50;99.90
11142;DHT22;5625;50.122;19.864;2022-12-07T04:47:35;2.50;99.90
11142;DHT22;5625;50.122;19.864;2022-12-07T04:50:04;2.50;99.90
11142;DHT22;5625;50.122;19.864;2022-12-07T04:52:32;2.40;99.90
11142;DHT22;5625;50.122;19.864;2022-12-07T04:55:02;2.40;99.90
11142;DHT22;5625;50.122;19.864;2022-12-07T04:57:30;2.40;99.90
11142;DHT22;5625;50.122;19.864;2022-12-07T04:59:58;2.50;99.90
11142;DHT22;5625;50.122;19.864;2022-12-07T05:02:27;2.40;99.90
11142;DHT22;5625;50.122;19.864;2022-12-07T05:04:55;2.50;99.90
11142;DHT22;5625;50.122;19.864;2022-12-07T05:07:23;2.40;99.90
11142;DHT22;5625;50.122;19.864;2022-12-07T05:09:51;2.40;99.90
11142;DHT22;5625;50.122;19.864;2022-12-07T05:12:21;2.40;99.90
11142;DHT22;5625;50.122;19.864;2022-12-07T05:14:49;2.40;99.90
11142;DHT22;5625;50.122;19.864;2022-12-07T05:17:17;2.40;99.90
11142;DHT22;5625;50.122;19.864;2022-12-07T05:19:45;2.30;99.90
11142;DHT22;5625;50.122;19.864;2022-12-07T05:22:13;2.30;99.90
11142;DHT22;5625;50.122;19.864;2022-12-07T05:24:42;2.40;99.90
11142;DHT22;5625;50.122;19.864;2022-12-07T05:27:10;2.30;99.90
11142;DHT22;5625;50.122;19.864;2022-12-07T05:29:39;2.30;99.90
11142;DHT22;5625;50.122;19.864;2022-12-07T05:32:07;2.30;99.90
11142;DHT22;5625;50.122;19.864;2022-12-07T05:34:37;2.30;99.90
11142;DHT22;5625;50.122;19.864;2022-12-07T05:37:06;2.30;99.90
11142;DHT22;5625;50.122;19.864;2022-12-07T05:39:34;2.30;99.90
11142;DHT22;5625;50.122;19.864;2022-12-07T05:42:02;2.30;99.90
11142;DHT22;5625;50.122;19.864;2022-12-07T05:44:40;2.30;99.90
11142;DHT22;5625;50.122;19.864;2022-12-07T05:47:08;2.30;99.90
11142;DHT22;5625;50.122;19.864;2022-12-07T05:49:36;2.30;99.90
11142;DHT22;5625;50.122;19.864;2022-12-07T05:52:05;2.30;99.90
11142;DHT22;5625;50.122;19.864;2022-12-07T05:54:33;2.30;99.90
11142;DHT22;5625;50.122;19.864;2022-12-07T05:57:01;2.30;99.90
11142;DHT22;5625;50.122;19.864;2022-12-07T05:59:29;2.30;99.90
11142;DHT22;5625;50.122;19.864;2022-12-07T06:01:59;2.30;99.90
11142;DHT22;5625;50.122;19.864;2022-12-07T06:04:29;2.30;99.90
11142;DHT22;5625;50.122;19.864;2022-12-07T06:06:57;2.30;99.90
11142;DHT22;5625;50.122;19.864;2022-12-07T06:09:27;2.30;99.90
11142;DHT22;5625;50.122;19.864;2022-12-07T06:11:56;2.30;99.90
11142;DHT22;5625;50.122;19.864;2022-12-07T06:14:42;2.30;99.90
11142;DHT22;5625;50.122;19.864;2022-12-07T06:17:12;2.20;99.90
11142;DHT22;5625;50.122;19.864;2022-12-07T06:19:41;2.30;99.90
11142;DHT22;5625;50.122;19.864;2022-12-07T06:22:10;2.30;99.90
11142;DHT22;5625;50.122;19.864;2022-12-07T06:24:39;2.30;99.90
11142;DHT22;5625;50.122;19.864;2022-12-07T06:27:07;2.30;99.90
11142;DHT22;5625;50.122;19.864;2022-12-07T06:29:36;2.20;99.90
11142;DHT22;5625;50.122;19.864;2022-12-07T06:32:04;2.30;99.90
11142;DHT22;5625;50.122;19.864;2022-12-07T06:34:34;2.20;99.90
11142;DHT22;5625;50.122;19.864;2022-12-07T06:37:02;2.20;99.90
11142;DHT22;5625;50.122;19.864;2022-12-07T06:39:30;2.20;99.90
11142;DHT22;5625;50.122;19.864;2022-12-07T06:41:59;2.20;99.90
11142;DHT22;5625;50.122;19.864;2022-12-07T06:44:29;2.20;99.90
11142;DHT22;5625;50.122;19.864;2022-12-07T06:46:58;2.20;99.90
11142;DHT22;5625;50.122;19.864;2022-12-07T06:49:47;2.20;99.90
11142;DHT22;5625;50.122;19.864;2022-12-07T06:52:15;2.20;99.90
11142;DHT22;5625;50.122;19.864;2022-12-07T06:54:43;2.20;99.90
11142;DHT22;5625;50.122;19.864;2022-12-07T06:57:11;2.20;99.90
11142;DHT22;5625;50.122;19.864;2022-12-07T06:59:40;2.20;99.90
11142;DHT22;5625;50.122;19.864;2022-12-07T07:02:08;2.20;99.90
11142;DHT22;5625;50.122;19.864;2022-12-07T07:04:36;2.20;99.90
11142;DHT22;5625;50.122;19.864;2022-12-07T07:07:06;2.20;99.90
11142;DHT22;5625;50.122;19.864;2022-12-07T07:09:34;2.20;99.90
11142;DHT22;5625;50.122;19.864;2022-12-07T07:12:02;2.20;99.90
11142;DHT22;5625;50.122;19.864;2022-12-07T07:14:30;2.20;99.90
11142;DHT22;5625;50.122;19.864;2022-12-07T07:16:59;2.20;99.90
11142;DHT22;5625;50.122;19.864;2022-12-07T07:19:27;2.20;99.90
11142;DHT22;5625;50.122;19.864;2022-12-07T07:21:55;2.20;99.90
11142;DHT22;5625;50.122;19.864;2022-12-07T07:24:25;2.20;99.90
11142;DHT22;5625;50.122;19.864;2022-12-07T07:26:53;2.20;99.90
11142;DHT22;5625;50.122;19.864;2022-12-07T07:29:21;2.10;99.90
11142;DHT22;5625;50.122;19.864;2022-12-07T07:31:49;2.10;99.90
11142;DHT22;5625;50.122;19.864;2022-12-07T07:34:17;2.20;99.90
11142;DHT22;5625;50.122;19.864;2022-12-07T07:36:48;2.10;99.90
11142;DHT22;5625;50.122;19.864;2022-12-07T07:39:16;2.10;99.90
11142;DHT22;5625;50.122;19.864;2022-12-07T07:41:46;2.20;99.90
11142;DHT22;5625;50.122;19.864;2022-12-07T07:44:14;2.10;99.90
11142;DHT22;5625;50.122;19.864;2022-12-07T07:46:42;2.10;99.90
11142;DHT22;5625;50.122;19.864;2022-12-07T07:49:10;2.20;99.90
11142;DHT22;5625;50.122;19.864;2022-12-07T07:51:38;2.20;99.90
11142;DHT22;5625;50.122;19.864;2022-12-07T07:54:07;2.20;99.90
11142;DHT22;5625;50.122;19.864;2022-12-07T07:56:35;2.20;99.90
11142;DHT22;5625;50.122;19.864;2022-12-07T07:59:04;2.20;99.90
11142;DHT22;5625;50.122;19.864;2022-12-07T08:01:32;2.20;99.90
11142;DHT22;5625;50.122;19.864;2022-12-07T08:04:00;2.20;99.90
11142;DHT22;5625;50.122;19.864;2022-12-07T08:06:28;2.20;99.90
11142;DHT22;5625;50.122;19.864;2022-12-07T08:08:58;2.20;99.90
11142;DHT22;5625;50.122;19.864;2022-12-07T08:11:26;2.30;99.90
11142;DHT22;5625;50.122;19.864;2022-12-07T08:13:54;2.30;99.90
11142;DHT22;5625;50.122;19.864;2022-12-07T08:16:25;2.30;99.90
11142;DHT22;5625;50.122;19.864;2022-12-07T08:18:54;2.30;99.90
11142;DHT22;5625;50.122;19.864;2022-12-07T08:21:22;2.30;99.90
11142;DHT22;5625;50.122;19.864;2022-12-07T08:23:51;2.30;99.90
11142;DHT22;5625;50.122;19.864;2022-12-07T08:26:19;2.30;99.90
11142;DHT22;5625;50.122;19.864;2022-12-07T08:28:47;2.30;99.90
11142;DHT22;5625;50.122;19.864;2022-12-07T08:31:17;2.30;99.90
11142;DHT22;5625;50.122;19.864;2022-12-07T08:33:49;2.30;99.90
11142;DHT22;5625;50.122;19.864;2022-12-07T08:36:17;2.30;99.90
11142;DHT22;5625;50.122;19.864;2022-12-07T08:38:45;2.40;99.90
11142;DHT22;5625;50.122;19.864;2022-12-07T08:41:33;2.40;99.90
11142;DHT22;5625;50.122;19.864;2022-12-07T08:44:02;2.40;99.90
11142;DHT22;5625;50.122;19.864;2022-12-07T08:46:35;2.40;99.90
11142;DHT22;5625;50.122;19.864;2022-12-07T08:49:09;2.40;99.90
11142;DHT22;5625;50.122;19.864;2022-12-07T08:51:39;2.50;99.90
11142;DHT22;5625;50.122;19.864;2022-12-07T08:54:11;2.50;99.90
11142;DHT22;5625;50.122;19.864;2022-12-07T08:56:42;2.50;99.90
11142;DHT22;5625;50.122;19.864;2022-12-07T08:59:11;2.50;99.90
11142;DHT22;5625;50.122;19.864;2022-12-07T09:01:40;2.50;99.90
11142;DHT22;5625;50.122;19.864;2022-12-07T09:04:09;2.50;99.90
11142;DHT22;5625;50.122;19.864;2022-12-07T09:06:37;2.50;99.90
11142;DHT22;5625;50.122;19.864;2022-12-07T09:09:06;2.60;99.90
11142;DHT22;5625;50.122;19.864;2022-12-07T09:11:36;2.60;99.90
11142;DHT22;5625;50.122;19.864;2022-12-07T09:14:04;2.60;99.90
11142;DHT22;5625;50.122;19.864;2022-12-07T09:16:32;2.60;99.90
11142;DHT22;5625;50.122;19.864;2022-12-07T09:19:00;2.60;99.90
11142;DHT22;5625;50.122;19.864;2022-12-07T09:21:29;2.60;99.90
11142;DHT22;5625;50.122;19.864;2022-12-07T09:23:57;2.60;99.90
11142;DHT22;5625;50.122;19.864;2022-12-07T09:26:28;2.60;99.90
11142;DHT22;5625;50.122;19.864;2022-12-07T09:28:56;2.60;99.90
11142;DHT22;5625;50.122;19.864;2022-12-07T09:31:24;2.60;99.90
11142;DHT22;5625;50.122;19.864;2022-12-07T09:33:54;2.60;99.90
11142;DHT22;5625;50.122;19.864;2022-12-07T09:36:23;2.70;99.90
11142;DHT22;5625;50.122;19.864;2022-12-07T09:38:53;2.70;99.90
11142;DHT22;5625;50.122;19.864;2022-12-07T09:41:27;2.70;99.90
11142;DHT22;5625;50.122;19.864;2022-12-07T09:44:02;2.70;99.90
11142;DHT22;5625;50.122;19.864;2022-12-07T09:46:35;2.70;99.90
11142;DHT22;5625;50.122;19.864;2022-12-07T09:49:04;2.70;99.90
11142;DHT22;5625;50.122;19.864;2022-12-07T09:51:32;2.70;99.90
11142;DHT22;5625;50.122;19.864;2022-12-07T09:54:02;2.70;99.90
11142;DHT22;5625;50.122;19.864;2022-12-07T09:56:32;2.80;99.90
11142;DHT22;5625;50.122;19.864;2022-12-07T09:59:01;2.80;99.90
11142;DHT22;5625;50.122;19.864;2022-12-07T10:01:31;2.80;99.90
11142;DHT22;5625;50.122;19.864;2022-12-07T10:04:06;2.80;99.90
11142;DHT22;5625;50.122;19.864;2022-12-07T10:06:37;2.80;99.90
11142;DHT22;5625;50.122;19.864;2022-12-07T10:09:10;2.80;99.90
11142;DHT22;5625;50.122;19.864;2022-12-07T10:12:04;2.80;99.90
11142;DHT22;5625;50.122;19.864;2022-12-07T10:14:34;2.80;99.90
11142;DHT22;5625;50.122;19.864;2022-12-07T10:17:33;2.80;99.90
11142;DHT22;5625;50.122;19.864;2022-12-07T10:20:23;2.80;99.90
11142;DHT22;5625;50.122;19.864;2022-12-07T10:23:01;2.80;99.90
11142;DHT22;5625;50.122;19.864;2022-12-07T10:25:32;2.90;99.90
11142;DHT22;5625;50.122;19.864;2022-12-07T10:28:08;2.90;99.90
11142;DHT22;5625;50.122;19.864;2022-12-07T10:30:48;2.90;99.90
11142;DHT22;5625;50.122;19.864;2022-12-07T10:33:31;2.80;99.90
11142;DHT22;5625;50.122;19.864;2022-12-07T10:36:09;2.80;99.90
11142;DHT22;5625;50.122;19.864;2022-12-07T10:38:46;2.90;99.90
11142;DHT22;5625;50.122;19.864;2022-12-07T10:41:16;2.90;99.90
11142;DHT22;5625;50.122;19.864;2022-12-07T10:43:50;2.90;99.90
11142;DHT22;5625;50.122;19.864;2022-12-07T10:46:46;3.00;99.90
11142;DHT22;5625;50.122;19.864;2022-12-07T10:49:38;3.00;99.90
11142;DHT22;5625;50.122;19.864;2022-12-07T10:52:16;3.00;99.90
11142;DHT22;5625;50.122;19.864;2022-12-07T10:54:54;3.10;99.90
11142;DHT22;5625;50.122;19.864;2022-12-07T10:57:36;3.10;99.90
11142;DHT22;5625;50.122;19.864;2022-12-07T11:00:19;3.20;99.90
11142;DHT22;5625;50.122;19.864;2022-12-07T11:03:03;3.20;99.90
11142;DHT22;5625;50.122;19.864;2022-12-07T11:05:41;3.30;99.90
11142;DHT22;5625;50.122;19.864;2022-12-07T11:08:19;3.30;99.90
11142;DHT22;5625;50.122;19.864;2022-12-07T11:10:54;3.30;99.90
11142;DHT22;5625;50.122;19.864;2022-12-07T11:13:29;3.40;99.90
11142;DHT22;5625;50.122;19.864;2022-12-07T11:16:16;3.40;99.90
11142;DHT22;5625;50.122;19.864;2022-12-07T11:18:55;3.30;99.90
11142;DHT22;5625;50.122;19.864;2022-12-07T11:21:30;3.40;99.90
11142;DHT22;5625;50.122;19.864;2022-12-07T11:24:06;3.30;99.90
11142;DHT22;5625;50.122;19.864;2022-12-07T11:26:48;3.30;99.90
11142;DHT22;5625;50.122;19.864;2022-12-07T11:29:44;3.30;99.90
11142;DHT22;5625;50.122;19.864;2022-12-07T11:32:22;3.30;99.90
11142;DHT22;5625;50.122;19.864;2022-12-07T11:35:00;3.30;99.90
11142;DHT22;5625;50.122;19.864;2022-12-07T11:37:33;3.40;99.90
11142;DHT22;5625;50.122;19.864;2022-12-07T11:40:15;3.40;99.90
11142;DHT22;5625;50.122;19.864;2022-12-07T11:42:49;3.40;99.90
11142;DHT22;5625;50.122;19.864;2022-12-07T11:45:27;3.50;99.90
11142;DHT22;5625;50.122;19.864;2022-12-07T11:47:59;3.40;99.90
11142;DHT22;5625;50.122;19.864;2022-12-07T11:50:34;3.50;99.90
11142;DHT22;5625;50.122;19.864;2022-12-07T11:53:09;3.50;99.90
11142;DHT22;5625;50.122;19.864;2022-12-07T11:55:42;3.50;99.90
11142;DHT22;5625;50.122;19.864;2022-12-07T11:58:39;3.50;99.90
11142;DHT22;5625;50.122;19.864;2022-12-07T12:01:18;3.50;99.90
11142;DHT22;5625;50.122;19.864;2022-12-07T12:03:55;3.50;99.90
11142;DHT22;5625;50.122;19.864;2022-12-07T12:06:25;3.50;99.90
11142;DHT22;5625;50.122;19.864;2022-12-07T12:08:56;3.50;99.90
11142;DHT22;5625;50.122;19.864;2022-12-07T12:12:08;3.50;99.90
11142;DHT22;5625;50.122;19.864;2022-12-07T12:15:14;3.60;99.90
11142;DHT22;5625;50.122;19.864;2022-12-07T12:17:59;3.60;99.90
11142;DHT22;5625;50.122;19.864;2022-12-07T12:20:32;3.60;99.90
11142;DHT22;5625;50.122;19.864;2022-12-07T12:23:07;3.70;99.90
11142;DHT22;5625;50.122;19.864;2022-12-07T12:25:40;3.60;99.90
11142;DHT22;5625;50.122;19.864;2022-12-07T12:28:20;3.70;99.90
11142;DHT22;5625;50.122;19.864;2022-12-07T12:31:05;3.70;99.90
11142;DHT22;5625;50.122;19.864;2022-12-07T12:33:36;3.70;99.90
11142;DHT22;5625;50.122;19.864;2022-12-07T12:36:20;3.70;99.90
11142;DHT22;5625;50.122;19.864;2022-12-07T12:38:50;3.70;99.90
11142;DHT22;5625;50.122;19.864;2022-12-07T12:41:52;3.70;99.90
11142;DHT22;5625;50.122;19.864;2022-12-07T12:47:57;3.70;99.90
11142;DHT22;5625;50.122;19.864;2022-12-07T12:50:29;3.70;99.90
11142;DHT22;5625;50.122;19.864;2022-12-07T12:53:14;3.70;99.90
11142;DHT22;5625;50.122;19.864;2022-12-07T12:58:44;3.70;99.90
11142;DHT22;5625;50.122;19.864;2022-12-07T13:01:40;3.70;99.90
11142;DHT22;5625;50.122;19.864;2022-12-07T13:10:38;3.70;99.90
11142;DHT22;5625;50.122;19.864;2022-12-07T13:13:33;3.70;99.90
11142;DHT22;5625;50.122;19.864;2022-12-07T13:22:47;3.80;99.90
11142;DHT22;5625;50.122;19.864;2022-12-07T13:25:29;3.80;99.90
11142;DHT22;5625;50.122;19.864;2022-12-07T13:28:02;3.80;99.90
11142;DHT22;5625;50.122;19.864;2022-12-07T13:30:44;3.70;99.90
11142;DHT22;5625;50.122;19.864;2022-12-07T13:33:17;3.70;99.90
11142;DHT22;5625;50.122;19.864;2022-12-07T13:35:46;3.70;99.90
11142;DHT22;5625;50.122;19.864;2022-12-07T13:38:23;3.70;99.90
11142;DHT22;5625;50.122;19.864;2022-12-07T13:41:00;3.70;99.90
11142;DHT22;5625;50.122;19.864;2022-12-07T13:43:28;3.70;99.90
11142;DHT22;5625;50.122;19.864;2022-12-07T13:45:57;3.70;99.90
11142;DHT22;5625;50.122;19.864;2022-12-07T13:48:31;3.70;99.90
11142;DHT22;5625;50.122;19.864;2022-12-07T13:51:01;3.70;99.90
11142;DHT22;5625;50.122;19.864;2022-12-07T13:53:31;3.60;99.90
11142;DHT22;5625;50.122;19.864;2022-12-07T13:56:01;3.60;99.90
11142;DHT22;5625;50.122;19.864;2022-12-07T13:58:31;3.60;99.90
11142;DHT22;5625;50.122;19.864;2022-12-07T14:01:00;3.50;99.90
11142;DHT22;5625;50.122;19.864;2022-12-07T14:03:31;3.50;99.90
11142;DHT22;5625;50.122;19.864;2022-12-07T14:06:15;3.50;99.90
11142;DHT22;5625;50.122;19.864;2022-12-07T14:08:46;3.40;99.90
11142;DHT22;5625;50.122;19.864;2022-12-07T14:11:19;3.50;99.90
11142;DHT22;5625;50.122;19.864;2022-12-07T14:13:56;3.40;99.90
11142;DHT22;5625;50.122;19.864;2022-12-07T14:16:30;3.40;99.90
11142;DHT22;5625;50.122;19.864;2022-12-07T14:18:59;3.40;99.90
11142;DHT22;5625;50.122;19.864;2022-12-07T14:21:30;3.40;99.90
11142;DHT22;5625;50.122;19.864;2022-12-07T14:24:12;3.40;99.90
11142;DHT22;5625;50.122;19.864;2022-12-07T14:26:43;3.40;99.90
11142;DHT22;5625;50.122;19.864;2022-12-07T14:29:35;3.40;99.90
11142;DHT22;5625;50.122;19.864;2022-12-07T14:32:21;3.40;99.90
11142;DHT22;5625;50.122;19.864;2022-12-07T14:34:55;3.40;99.90
11142;DHT22;5625;50.122;19.864;2022-12-07T14:37:24;3.40;99.90
11142;DHT22;5625;50.122;19.864;2022-12-07T14:39:54;3.40;99.90
11142;DHT22;5625;50.122;19.864;2022-12-07T14:42:24;3.40;99.90
11142;DHT22;5625;50.122;19.864;2022-12-07T14:44:53;3.40;99.90
11142;DHT22;5625;50.122;19.864;2022-12-07T14:47:21;3.40;99.90
11142;DHT22;5625;50.122;19.864;2022-12-07T14:50:12;3.40;99.90
11142;DHT22;5625;50.122;19.864;2022-12-07T14:52:42;3.30;99.90
11142;DHT22;5625;50.122;19.864;2022-12-07T14:55:32;3.30;99.90
11142;DHT22;5625;50.122;19.864;2022-12-07T14:58:03;3.30;99.90
11142;DHT22;5625;50.122;19.864;2022-12-07T15:00:31;3.30;99.90
11142;DHT22;5625;50.122;19.864;2022-12-07T15:03:03;3.30;99.90
11142;DHT22;5625;50.122;19.864;2022-12-07T15:05:31;3.30;99.90
11142;DHT22;5625;50.122;19.864;2022-12-07T15:07:59;3.30;99.90
11142;DHT22;5625;50.122;19.864;2022-12-07T15:10:33;3.30;99.90
11142;DHT22;5625;50.122;19.864;2022-12-07T15:13:05;3.30;99.90
11142;DHT22;5625;50.122;19.864;2022-12-07T15:15:52;3.30;99.90
11142;DHT22;5625;50.122;19.864;2022-12-07T15:18:22;3.30;99.90
11142;DHT22;5625;50.122;19.864;2022-12-07T15:20:51;3.30;99.90
11142;DHT22;5625;50.122;19.864;2022-12-07T15:23:19;3.30;99.90
11142;DHT22;5625;50.122;19.864;2022-12-07T15:25:49;3.30;99.90
11142;DHT22;5625;50.122;19.864;2022-12-07T15:28:17;3.30;99.90
11142;DHT22;5625;50.122;19.864;2022-12-07T15:30:45;3.30;99.90
11142;DHT22;5625;50.122;19.864;2022-12-07T15:33:13;3.30;99.90
11142;DHT22;5625;50.122;19.864;2022-12-07T15:35:42;3.30;99.90
11142;DHT22;5625;50.122;19.864;2022-12-07T15:38:11;3.30;99.90
11142;DHT22;5625;50.122;19.864;2022-12-07T15:40:39;3.30;99.90
11142;DHT22;5625;50.122;19.864;2022-12-07T15:43:11;3.30;99.90
11142;DHT22;5625;50.122;19.864;2022-12-07T15:45:53;3.30;99.90
11142;DHT22;5625;50.122;19.864;2022-12-07T15:48:24;3.30;99.90
11142;DHT22;5625;50.122;19.864;2022-12-07T15:51:01;3.30;99.90
11142;DHT22;5625;50.122;19.864;2022-12-07T15:53:32;3.30;99.90
11142;DHT22;5625;50.122;19.864;2022-12-07T15:56:00;3.30;99.90
11142;DHT22;5625;50.122;19.864;2022-12-07T15:58:31;3.30;99.90
11142;DHT22;5625;50.122;19.864;2022-12-07T16:00:59;3.30;99.90
11142;DHT22;5625;50.122;19.864;2022-12-07T16:03:27;3.30;99.90
11142;DHT22;5625;50.122;19.864;2022-12-07T16:05:55;3.30;99.90
11142;DHT22;5625;50.122;19.864;2022-12-07T16:08:26;3.30;99.90
11142;DHT22;5625;50.122;19.864;2022-12-07T16:11:05;3.30;99.90
11142;DHT22;5625;50.122;19.864;2022-12-07T16:13:34;3.30;99.90
11142;DHT22;5625;50.122;19.864;2022-12-07T16:16:03;3.30;99.90
11142;DHT22;5625;50.122;19.864;2022-12-07T16:18:32;3.30;99.90
11142;DHT22;5625;50.122;19.864;2022-12-07T16:21:00;3.30;99.90
11142;DHT22;5625;50.122;19.864;2022-12-07T16:23:28;3.30;99.90
11142;DHT22;5625;50.122;19.864;2022-12-07T16:26:04;3.20;99.90
11142;DHT22;5625;50.122;19.864;2022-12-07T16:28:33;3.30;99.90
11142;DHT22;5625;50.122;19.864;2022-12-07T16:31:03;3.30;99.90
11142;DHT22;5625;50.122;19.864;2022-12-07T16:33:31;3.30;99.90
11142;DHT22;5625;50.122;19.864;2022-12-07T16:35:59;3.30;99.90
11142;DHT22;5625;50.122;19.864;2022-12-07T16:38:30;3.30;99.90
11142;DHT22;5625;50.122;19.864;2022-12-07T16:40:58;3.30;99.90